KRS weather

Kristiansand Airport
Kjevik, Vest-Agder, Norway

Public forecast

Using degrees Celsius for public forecast. Weather courtesy of forecast.io.

Current aviation weather report (METAR) for Kristiansand Airport

Retrieved 2019/10/16 21:20 UTC (0 seconds ago):

ENCN 162120Z AUTO 03004KT 9999 BKN010/// OVC016/// 08/08 Q1007

Aviation forecast (TAF) for Kristiansand Airport

Forecast is more than 12 hours old.

Retrieved 2016/05/06 12:39 UTC (3 years ago):

TAF TAF ENCN 061100Z 0612/0712 14008KT 9999 FEW040